This is the latest recevied weather packets stored in our database for station/object OE6ATD-13. If no packets are shown the sender has not sent any weather packets the latest 1 day(s).
| Time | Temp. | Humidity | Pressure | Rain* | Wind** | Luminosity | Snow |
|---|---|---|---|---|---|---|---|
| 1777973130 | 26.67° C | 25% | 1009.8 hPa | 0 mm | 0.45 m/s, 313° | 869 W/m² | - |
| 1777972525 | 26.67° C | 24% | 1009.9 hPa | 0 mm | 0 m/s | 842 W/m² | - |
| 1777971921 | 26.11° C | 24% | 1010 hPa | 0 mm | 0 m/s | 811 W/m² | - |
| 1777971317 | 25.56° C | 23% | 1010 hPa | 0 mm | 0.45 m/s, 212° | 776 W/m² | - |
| 1777970728 | 25° C | 23% | 1010 hPa | 0 mm | 0.89 m/s, 274° | 740 W/m² | - |
| 1777970124 | 25° C | 22% | 1010 hPa | 0 mm | 1.79 m/s, 265° | 720 W/m² | - |
| 1777969520 | 24.44° C | 25% | 1010 hPa | 0 mm | 1.34 m/s, 219° | 693 W/m² | - |
| 1777968916 | 24.44° C | 25% | 1010.1 hPa | 0 mm | 1.34 m/s, 248° | 673 W/m² | - |
| 1777968327 | 24.44° C | 25% | 1010.1 hPa | 0 mm | 0.89 m/s, 240° | 646 W/m² | - |
| 1777967722 | 24.44° C | 26% | 1010 hPa | 0 mm | 1.34 m/s, 276° | 630 W/m² | - |
| 1777967118 | 24.44° C | 28% | 1010 hPa | 0 mm | 0.45 m/s, 223° | 600 W/m² | - |
| 1777966529 | 23.33° C | 29% | 1010.1 hPa | 0 mm | 0.45 m/s, 239° | 570 W/m² | - |
| 1777965925 | 23.33° C | 30% | 1010.1 hPa | 0 mm | 0.89 m/s, 257° | 539 W/m² | - |
| 1777965320 | 22.22° C | 30% | 1010.1 hPa | 0 mm | 0.89 m/s, 222° | 522 W/m² | - |
| 1777964716 | 22.22° C | 31% | 1010 hPa | 0 mm | 1.34 m/s, 274° | 493 W/m² | - |
| 1777964128 | 22.78° C | 30% | 1010.1 hPa | 0 mm | 0.45 m/s, 315° | 352 W/m² | - |
| 1777963523 | 21.11° C | 36% | 1010.2 hPa | 0 mm | 0 m/s | 425 W/m² | - |
| 1777959315 | 18.33° C | 50% | 1010.2 hPa | 0 mm | 0 m/s | 246 W/m² | - |
| 1777958122 | 15° C | 59% | 1010.2 hPa | 0 mm | 0 m/s | 157 W/m² | - |
| 1777956324 | 12.22° C | 65% | 1010.2 hPa | 0 mm | 0 m/s | 34 W/m² | - |
* Rain latest hour (hover to see other rain measurements)
** Current wind speed in m/s (hover to see current wind gust speed)